アルハンゲリスク の空港の天気 - METARとTAF

Arhangel'Sk ( ULAA / ARH ) - ロシア アルハンゲリスク
飛行場実況気象(Metar)
観測時間02/20 18:00 MSK (02/20 15:00 UTC)
風向・風速東北東 2m/s
視程10km以上
天気現象
全天の4割程度の雲 雲底高度 490m
気温-12℃
湿度85%
気圧988hPa
METARULAA 201500Z 07002MPS 9999 SCT016 M12/M14 Q0988 R08/950748 NOSIG RMK QFE740/0986
過去の天気等 Google飛行場航空写真 Wunderground天気予報

過去48時間のMETAR

飛行場予報(TAF)
発表時間: 2/20 16:58 MSK (2/20 13:58 UTC)
予報対象時間: 20日18時 MSK ~ 21日18時 MSK
風向・風速北北東 4m/s
視程6,000m
全天の8割程度の雲 雲底高度 210m
20日18時 MSK ~ 21日9時 MSK に一時的に
風向・風速不定 1m/s
視程300m
天気現象弱い雪 氷霧
全天の8割程度の雲 雲底高度 60m
21日9時 MSK から
風向・風速南東 4m/s
視程4,000m
天気現象弱い雪 もや
全天の4割程度の雲 雲底高度 150m
全天を覆う雲 雲底高度 210m
21日9時 MSK ~ 21日18時 MSK に一時的に
視程2,000m
天気現象しゅう雪
全天の8割程度の雲 雲底高度 150m
全天の8割程度の積乱雲 雲底高度 300m
TAF ULAA 201358Z 2015/2115 03004MPS 6000 BKN007
TEMPO 2015/2106 VRB01MPS 0300 -SN FZFG BKN002
FM210600 14004MPS 4000 -SN BR SCT005 OVC007
TEMPO 2106/2115 2000 SHSN BKN005 BKN010CB